Lytchett Matravers, United Kingdom
Current Conditions -  °F | °C
As of 3:50 AM on Monday 24 Nov 2014 (Local Time) from EGHH Reporting Station
Moderate Fog Moderate Fog  
Wind Chill: 30°   Ceiling: Unl
Heat Index: 30°   Visibility: 0.5mi
Dew Point: 30°   Wind: 2mph
Humidity: 100%   Direction: 330°NNW
Pressure: 30.24"   Gusts: NA
Location:  50.76°N, 2.08°W
Report Text: EGHH 240350Z 33002KT 0800 FZFG NSC M01/M01 Q1024
Loading
Personal Weather Stations






























Interactive Weather Map New forecast layout! Learn more

10-Day Weather Forecast

Advertisements
Track Severe Weather on mobile